sensor_id;sensor_type;location;lat;lon;timestamp;temperature;humidity
63771;DHT22;60282;43.862;18.430;2023-12-28T00:01:09;3.80;99.90
63771;DHT22;60282;43.862;18.430;2023-12-28T00:03:36;3.80;99.90
63771;DHT22;60282;43.862;18.430;2023-12-28T00:06:02;3.90;99.90
63771;DHT22;60282;43.862;18.430;2023-12-28T00:08:27;4.40;99.90
63771;DHT22;60282;43.862;18.430;2023-12-28T00:11:02;4.00;99.90
63771;DHT22;60282;43.862;18.430;2023-12-28T00:13:50;4.00;99.90
63771;DHT22;60282;43.862;18.430;2023-12-28T00:16:21;3.20;99.90
63771;DHT22;60282;43.862;18.430;2023-12-28T00:18:46;4.10;99.90
63771;DHT22;60282;43.862;18.430;2023-12-28T00:21:12;3.50;99.90
63771;DHT22;60282;43.862;18.430;2023-12-28T00:23:45;4.00;99.90
63771;DHT22;60282;43.862;18.430;2023-12-28T00:26:10;3.90;99.90
63771;DHT22;60282;43.862;18.430;2023-12-28T00:28:40;3.80;99.90
63771;DHT22;60282;43.862;18.430;2023-12-28T00:31:07;3.80;99.90
63771;DHT22;60282;43.862;18.430;2023-12-28T00:33:48;3.60;99.90
63771;DHT22;60282;43.862;18.430;2023-12-28T00:36:22;3.50;99.90
63771;DHT22;60282;43.862;18.430;2023-12-28T00:38:58;3.50;99.90
63771;DHT22;60282;43.862;18.430;2023-12-28T00:41:24;3.40;99.90
63771;DHT22;60282;43.862;18.430;2023-12-28T00:43:50;3.30;99.90
63771;DHT22;60282;43.862;18.430;2023-12-28T00:46:16;3.80;99.90
63771;DHT22;60282;43.862;18.430;2023-12-28T00:48:43;3.30;99.90
63771;DHT22;60282;43.862;18.430;2023-12-28T00:51:10;3.30;99.90
63771;DHT22;60282;43.862;18.430;2023-12-28T00:53:42;3.40;99.90
63771;DHT22;60282;43.862;18.430;2023-12-28T00:56:09;4.40;99.90
63771;DHT22;60282;43.862;18.430;2023-12-28T00:58:39;3.40;99.90
63771;DHT22;60282;43.862;18.430;2023-12-28T01:01:06;3.40;99.90
63771;DHT22;60282;43.862;18.430;2023-12-28T01:03:35;3.40;99.90
63771;DHT22;60282;43.862;18.430;2023-12-28T01:06:02;3.40;99.90
63771;DHT22;60282;43.862;18.430;2023-12-28T01:08:28;3.40;99.90
63771;DHT22;60282;43.862;18.430;2023-12-28T01:10:54;3.50;99.90
63771;DHT22;60282;43.862;18.430;2023-12-28T01:13:20;3.40;99.90
63771;DHT22;60282;43.862;18.430;2023-12-28T01:15:46;4.30;99.90
63771;DHT22;60282;43.862;18.430;2023-12-28T01:18:30;3.50;99.90
63771;DHT22;60282;43.862;18.430;2023-12-28T01:21:05;3.50;99.90
63771;DHT22;60282;43.862;18.430;2023-12-28T01:23:33;3.60;99.90
63771;DHT22;60282;43.862;18.430;2023-12-28T01:26:05;3.70;99.90
63771;DHT22;60282;43.862;18.430;2023-12-28T01:28:52;3.70;99.90
63771;DHT22;60282;43.862;18.430;2023-12-28T01:31:27;3.80;99.90
63771;DHT22;60282;43.862;18.430;2023-12-28T01:34:14;3.80;99.90
63771;DHT22;60282;43.862;18.430;2023-12-28T01:36:41;3.80;99.90
63771;DHT22;60282;43.862;18.430;2023-12-28T01:39:28;3.80;99.90
63771;DHT22;60282;43.862;18.430;2023-12-28T01:42:03;3.70;99.90
63771;DHT22;60282;43.862;18.430;2023-12-28T01:47:08;3.70;99.90
63771;DHT22;60282;43.862;18.430;2023-12-28T01:49:57;3.70;99.90
63771;DHT22;60282;43.862;18.430;2023-12-28T01:52:24;4.50;99.90
63771;DHT22;60282;43.862;18.430;2023-12-28T01:54:51;3.70;99.90
63771;DHT22;60282;43.862;18.430;2023-12-28T01:57:20;3.50;99.90
63771;DHT22;60282;43.862;18.430;2023-12-28T01:59:48;3.40;99.90
63771;DHT22;60282;43.862;18.430;2023-12-28T02:02:14;3.40;99.90
63771;DHT22;60282;43.862;18.430;2023-12-28T02:04:40;3.30;99.90
63771;DHT22;60282;43.862;18.430;2023-12-28T02:07:20;2.60;99.90
63771;DHT22;60282;43.862;18.430;2023-12-28T02:09:56;3.30;99.90
63771;DHT22;60282;43.862;18.430;2023-12-28T02:12:37;3.20;99.90
63771;DHT22;60282;43.862;18.430;2023-12-28T02:15:18;3.20;99.90
63771;DHT22;60282;43.862;18.430;2023-12-28T02:18:05;3.10;99.90
63771;DHT22;60282;43.862;18.430;2023-12-28T02:20:58;3.10;99.90
63771;DHT22;60282;43.862;18.430;2023-12-28T02:23:32;5.80;99.90
63771;DHT22;60282;43.862;18.430;2023-12-28T02:26:05;3.20;99.90
63771;DHT22;60282;43.862;18.430;2023-12-28T02:28:40;3.20;99.90
63771;DHT22;60282;43.862;18.430;2023-12-28T02:31:26;3.10;99.90
63771;DHT22;60282;43.862;18.430;2023-12-28T02:34:19;3.10;99.90
63771;DHT22;60282;43.862;18.430;2023-12-28T02:37:20;3.10;99.90
63771;DHT22;60282;43.862;18.430;2023-12-28T02:39:51;3.10;99.90
63771;DHT22;60282;43.862;18.430;2023-12-28T02:42:46;3.10;99.90
63771;DHT22;60282;43.862;18.430;2023-12-28T02:45:13;3.20;99.90
63771;DHT22;60282;43.862;18.430;2023-12-28T02:47:53;3.30;99.90
63771;DHT22;60282;43.862;18.430;2023-12-28T02:52:47;3.30;99.90
63771;DHT22;60282;43.862;18.430;2023-12-28T02:55:14;3.10;99.90
63771;DHT22;60282;43.862;18.430;2023-12-28T02:57:40;3.10;99.90
63771;DHT22;60282;43.862;18.430;2023-12-28T03:00:26;3.00;99.90
63771;DHT22;60282;43.862;18.430;2023-12-28T03:03:04;3.00;99.90
63771;DHT22;60282;43.862;18.430;2023-12-28T03:05:32;3.10;99.90
63771;DHT22;60282;43.862;18.430;2023-12-28T03:08:14;3.10;99.90
63771;DHT22;60282;43.862;18.430;2023-12-28T03:10:39;3.10;99.90
63771;DHT22;60282;43.862;18.430;2023-12-28T03:13:05;3.10;99.90
63771;DHT22;60282;43.862;18.430;2023-12-28T03:15:32;3.20;99.90
63771;DHT22;60282;43.862;18.430;2023-12-28T03:17:58;3.60;99.90
63771;DHT22;60282;43.862;18.430;2023-12-28T03:20:24;3.10;99.90
63771;DHT22;60282;43.862;18.430;2023-12-28T03:22:50;3.10;99.90
63771;DHT22;60282;43.862;18.430;2023-12-28T03:25:15;3.10;99.90
63771;DHT22;60282;43.862;18.430;2023-12-28T03:27:41;3.00;99.90
63771;DHT22;60282;43.862;18.430;2023-12-28T03:30:07;2.80;99.90
63771;DHT22;60282;43.862;18.430;2023-12-28T03:32:35;2.80;99.90
63771;DHT22;60282;43.862;18.430;2023-12-28T03:35:42;2.70;99.90
63771;DHT22;60282;43.862;18.430;2023-12-28T03:38:21;2.70;99.90
63771;DHT22;60282;43.862;18.430;2023-12-28T03:40:47;2.80;99.90
63771;DHT22;60282;43.862;18.430;2023-12-28T03:43:14;2.90;99.90
63771;DHT22;60282;43.862;18.430;2023-12-28T03:45:40;2.90;99.90
63771;DHT22;60282;43.862;18.430;2023-12-28T03:48:06;3.00;99.90
63771;DHT22;60282;43.862;18.430;2023-12-28T03:50:32;3.00;99.90
63771;DHT22;60282;43.862;18.430;2023-12-28T03:52:57;2.90;99.90
63771;DHT22;60282;43.862;18.430;2023-12-28T03:55:24;2.90;99.90
63771;DHT22;60282;43.862;18.430;2023-12-28T03:57:50;2.90;99.90
63771;DHT22;60282;43.862;18.430;2023-12-28T04:00:16;3.00;99.90
63771;DHT22;60282;43.862;18.430;2023-12-28T04:02:42;3.00;99.90
63771;DHT22;60282;43.862;18.430;2023-12-28T04:05:33;3.00;99.90
63771;DHT22;60282;43.862;18.430;2023-12-28T04:08:07;2.90;99.90
63771;DHT22;60282;43.862;18.430;2023-12-28T04:10:38;2.90;99.90
63771;DHT22;60282;43.862;18.430;2023-12-28T04:13:04;2.90;99.90
63771;DHT22;60282;43.862;18.430;2023-12-28T04:15:31;2.80;99.90
63771;DHT22;60282;43.862;18.430;2023-12-28T04:17:57;2.90;99.90
63771;DHT22;60282;43.862;18.430;2023-12-28T04:20:23;2.90;99.90
63771;DHT22;60282;43.862;18.430;2023-12-28T04:22:54;2.90;99.90
63771;DHT22;60282;43.862;18.430;2023-12-28T04:25:30;2.70;99.90
63771;DHT22;60282;43.862;18.430;2023-12-28T04:27:59;2.70;99.90
63771;DHT22;60282;43.862;18.430;2023-12-28T04:30:25;2.70;99.90
63771;DHT22;60282;43.862;18.430;2023-12-28T04:32:51;1.20;99.90
63771;DHT22;60282;43.862;18.430;2023-12-28T04:35:17;2.70;99.90
63771;DHT22;60282;43.862;18.430;2023-12-28T04:37:42;2.70;99.90
63771;DHT22;60282;43.862;18.430;2023-12-28T04:40:09;2.60;99.90
63771;DHT22;60282;43.862;18.430;2023-12-28T04:42:34;2.70;99.90
63771;DHT22;60282;43.862;18.430;2023-12-28T04:45:00;2.70;99.90
63771;DHT22;60282;43.862;18.430;2023-12-28T04:47:36;2.60;99.90
63771;DHT22;60282;43.862;18.430;2023-12-28T04:50:17;2.70;99.90
63771;DHT22;60282;43.862;18.430;2023-12-28T04:52:45;2.60;99.90
63771;DHT22;60282;43.862;18.430;2023-12-28T04:55:11;2.60;99.90
63771;DHT22;60282;43.862;18.430;2023-12-28T04:57:37;2.60;99.90
63771;DHT22;60282;43.862;18.430;2023-12-28T05:00:04;2.50;99.90
63771;DHT22;60282;43.862;18.430;2023-12-28T05:02:30;2.50;99.90
63771;DHT22;60282;43.862;18.430;2023-12-28T05:05:17;2.50;99.90
63771;DHT22;60282;43.862;18.430;2023-12-28T05:07:43;2.50;99.90
63771;DHT22;60282;43.862;18.430;2023-12-28T05:10:24;2.60;99.90
63771;DHT22;60282;43.862;18.430;2023-12-28T05:12:53;2.50;99.90
63771;DHT22;60282;43.862;18.430;2023-12-28T05:15:18;2.40;99.90
63771;DHT22;60282;43.862;18.430;2023-12-28T05:17:45;2.30;99.90
63771;DHT22;60282;43.862;18.430;2023-12-28T05:20:11;2.30;99.90
63771;DHT22;60282;43.862;18.430;2023-12-28T05:22:43;2.30;99.90
63771;DHT22;60282;43.862;18.430;2023-12-28T05:25:08;2.30;99.90
63771;DHT22;60282;43.862;18.430;2023-12-28T05:27:34;2.30;99.90
63771;DHT22;60282;43.862;18.430;2023-12-28T05:30:00;2.20;99.90
63771;DHT22;60282;43.862;18.430;2023-12-28T05:32:32;2.30;99.90
63771;DHT22;60282;43.862;18.430;2023-12-28T05:35:06;2.30;99.90
63771;DHT22;60282;43.862;18.430;2023-12-28T05:37:52;1.00;99.90
63771;DHT22;60282;43.862;18.430;2023-12-28T05:40:17;2.00;99.90
63771;DHT22;60282;43.862;18.430;2023-12-28T05:42:45;2.00;99.90
63771;DHT22;60282;43.862;18.430;2023-12-28T05:45:12;2.00;99.90
63771;DHT22;60282;43.862;18.430;2023-12-28T05:47:41;2.10;99.90
63771;DHT22;60282;43.862;18.430;2023-12-28T05:50:09;2.10;99.90
63771;DHT22;60282;43.862;18.430;2023-12-28T05:52:38;2.20;99.90
63771;DHT22;60282;43.862;18.430;2023-12-28T05:55:05;2.20;99.90
63771;DHT22;60282;43.862;18.430;2023-12-28T05:57:31;2.30;99.90
63771;DHT22;60282;43.862;18.430;2023-12-28T05:59:57;2.30;99.90
63771;DHT22;60282;43.862;18.430;2023-12-28T06:02:34;2.40;99.90
63771;DHT22;60282;43.862;18.430;2023-12-28T06:04:59;2.40;99.90
63771;DHT22;60282;43.862;18.430;2023-12-28T06:07:25;2.40;99.90
63771;DHT22;60282;43.862;18.430;2023-12-28T06:09:51;2.40;99.90
63771;DHT22;60282;43.862;18.430;2023-12-28T06:12:17;2.40;99.90
63771;DHT22;60282;43.862;18.430;2023-12-28T06:14:43;2.50;99.90
63771;DHT22;60282;43.862;18.430;2023-12-28T06:17:08;2.50;99.90
63771;DHT22;60282;43.862;18.430;2023-12-28T06:19:38;2.50;99.90
63771;DHT22;60282;43.862;18.430;2023-12-28T06:22:10;2.40;99.90
63771;DHT22;60282;43.862;18.430;2023-12-28T06:24:56;2.50;99.90
63771;DHT22;60282;43.862;18.430;2023-12-28T06:27:27;2.40;99.90
63771;DHT22;60282;43.862;18.430;2023-12-28T06:29:53;2.30;99.90
63771;DHT22;60282;43.862;18.430;2023-12-28T06:32:19;2.20;99.90
63771;DHT22;60282;43.862;18.430;2023-12-28T06:34:44;2.20;99.90
63771;DHT22;60282;43.862;18.430;2023-12-28T06:37:10;2.00;99.90
63771;DHT22;60282;43.862;18.430;2023-12-28T06:39:56;2.00;99.90
63771;DHT22;60282;43.862;18.430;2023-12-28T06:42:24;2.00;99.90
63771;DHT22;60282;43.862;18.430;2023-12-28T06:44:52;2.00;99.90
63771;DHT22;60282;43.862;18.430;2023-12-28T06:47:24;2.00;99.90
63771;DHT22;60282;43.862;18.430;2023-12-28T06:49:51;2.00;99.90
63771;DHT22;60282;43.862;18.430;2023-12-28T06:52:59;2.00;99.90
63771;DHT22;60282;43.862;18.430;2023-12-28T06:55:26;2.00;99.90
63771;DHT22;60282;43.862;18.430;2023-12-28T06:57:59;2.10;99.90
63771;DHT22;60282;43.862;18.430;2023-12-28T07:00:28;2.10;99.90
63771;DHT22;60282;43.862;18.430;2023-12-28T07:02:54;2.50;99.90
63771;DHT22;60282;43.862;18.430;2023-12-28T07:05:22;2.10;99.90
63771;DHT22;60282;43.862;18.430;2023-12-28T07:07:48;2.10;99.90
63771;DHT22;60282;43.862;18.430;2023-12-28T07:10:23;2.00;99.90
63771;DHT22;60282;43.862;18.430;2023-12-28T07:12:52;2.00;99.90
63771;DHT22;60282;43.862;18.430;2023-12-28T07:15:18;2.10;99.90
63771;DHT22;60282;43.862;18.430;2023-12-28T07:18:10;2.20;99.90
63771;DHT22;60282;43.862;18.430;2023-12-28T07:20:58;2.30;99.90
63771;DHT22;60282;43.862;18.430;2023-12-28T07:23:24;2.40;99.90
63771;DHT22;60282;43.862;18.430;2023-12-28T07:25:51;2.40;99.90
63771;DHT22;60282;43.862;18.430;2023-12-28T07:28:22;2.40;99.90
63771;DHT22;60282;43.862;18.430;2023-12-28T07:30:48;2.50;99.90
63771;DHT22;60282;43.862;18.430;2023-12-28T07:33:16;2.50;99.90
63771;DHT22;60282;43.862;18.430;2023-12-28T07:35:43;2.50;99.90
63771;DHT22;60282;43.862;18.430;2023-12-28T07:38:09;2.60;99.90
63771;DHT22;60282;43.862;18.430;2023-12-28T07:40:38;4.20;99.90
63771;DHT22;60282;43.862;18.430;2023-12-28T07:43:30;2.50;99.90
63771;DHT22;60282;43.862;18.430;2023-12-28T07:45:56;2.60;99.90
63771;DHT22;60282;43.862;18.430;2023-12-28T07:48:29;2.70;99.90
63771;DHT22;60282;43.862;18.430;2023-12-28T07:51:17;2.80;99.90
63771;DHT22;60282;43.862;18.430;2023-12-28T07:53:50;2.90;99.90
63771;DHT22;60282;43.862;18.430;2023-12-28T07:56:16;3.00;99.90
63771;DHT22;60282;43.862;18.430;2023-12-28T07:58:42;3.10;99.90
63771;DHT22;60282;43.862;18.430;2023-12-28T08:01:11;3.20;99.90
63771;DHT22;60282;43.862;18.430;2023-12-28T08:03:37;3.30;99.90
63771;DHT22;60282;43.862;18.430;2023-12-28T08:06:05;3.40;99.90
63771;DHT22;60282;43.862;18.430;2023-12-28T08:08:33;3.50;99.90
63771;DHT22;60282;43.862;18.430;2023-12-28T08:10:59;3.60;99.90
63771;DHT22;60282;43.862;18.430;2023-12-28T08:13:25;3.70;99.90
63771;DHT22;60282;43.862;18.430;2023-12-28T08:15:55;3.70;99.90
63771;DHT22;60282;43.862;18.430;2023-12-28T08:18:31;3.80;99.90
63771;DHT22;60282;43.862;18.430;2023-12-28T08:20:57;4.10;99.90
63771;DHT22;60282;43.862;18.430;2023-12-28T08:23:53;4.80;99.90
63771;DHT22;60282;43.862;18.430;2023-12-28T08:26:40;4.30;99.90
63771;DHT22;60282;43.862;18.430;2023-12-28T08:29:07;4.50;99.90
63771;DHT22;60282;43.862;18.430;2023-12-28T08:31:33;4.60;99.90
63771;DHT22;60282;43.862;18.430;2023-12-28T08:33:58;4.60;99.90
63771;DHT22;60282;43.862;18.430;2023-12-28T08:36:24;4.50;99.90
63771;DHT22;60282;43.862;18.430;2023-12-28T08:38:55;4.50;99.90
63771;DHT22;60282;43.862;18.430;2023-12-28T08:41:24;4.60;99.90
63771;DHT22;60282;43.862;18.430;2023-12-28T08:43:51;4.80;99.90
63771;DHT22;60282;43.862;18.430;2023-12-28T08:46:19;4.90;99.90
63771;DHT22;60282;43.862;18.430;2023-12-28T08:48:44;5.00;99.90
63771;DHT22;60282;43.862;18.430;2023-12-28T08:51:10;5.10;99.90
63771;DHT22;60282;43.862;18.430;2023-12-28T08:53:37;5.10;99.90
63771;DHT22;60282;43.862;18.430;2023-12-28T08:56:12;5.10;99.90
63771;DHT22;60282;43.862;18.430;2023-12-28T08:59:15;5.30;99.90
63771;DHT22;60282;43.862;18.430;2023-12-28T09:01:42;5.70;99.90
63771;DHT22;60282;43.862;18.430;2023-12-28T09:04:24;5.90;99.90
63771;DHT22;60282;43.862;18.430;2023-12-28T09:06:54;6.10;99.90
63771;DHT22;60282;43.862;18.430;2023-12-28T09:09:48;6.40;99.90
63771;DHT22;60282;43.862;18.430;2023-12-28T09:12:33;6.40;99.90
63771;DHT22;60282;43.862;18.430;2023-12-28T09:15:02;6.70;99.90
63771;DHT22;60282;43.862;18.430;2023-12-28T09:17:34;6.90;99.90
63771;DHT22;60282;43.862;18.430;2023-12-28T09:20:00;7.00;99.90
63771;DHT22;60282;43.862;18.430;2023-12-28T09:22:40;7.20;99.90
63771;DHT22;60282;43.862;18.430;2023-12-28T09:25:08;7.10;99.90
63771;DHT22;60282;43.862;18.430;2023-12-28T09:27:34;7.30;99.90
63771;DHT22;60282;43.862;18.430;2023-12-28T09:30:01;7.50;99.90
63771;DHT22;60282;43.862;18.430;2023-12-28T09:32:28;7.60;99.90
63771;DHT22;60282;43.862;18.430;2023-12-28T09:35:03;7.70;99.90
63771;DHT22;60282;43.862;18.430;2023-12-28T09:37:52;7.80;99.90
63771;DHT22;60282;43.862;18.430;2023-12-28T09:40:40;8.00;99.90
63771;DHT22;60282;43.862;18.430;2023-12-28T09:43:35;8.20;99.90
63771;DHT22;60282;43.862;18.430;2023-12-28T09:46:40;8.40;99.90
63771;DHT22;60282;43.862;18.430;2023-12-28T09:49:11;8.30;99.90
63771;DHT22;60282;43.862;18.430;2023-12-28T09:54:06;8.30;99.90
63771;DHT22;60282;43.862;18.430;2023-12-28T09:56:40;8.50;99.90
63771;DHT22;60282;43.862;18.430;2023-12-28T09:59:07;8.50;99.90
63771;DHT22;60282;43.862;18.430;2023-12-28T10:01:36;8.70;99.90
63771;DHT22;60282;43.862;18.430;2023-12-28T10:04:05;8.70;99.90
63771;DHT22;60282;43.862;18.430;2023-12-28T10:06:44;8.80;99.90
63771;DHT22;60282;43.862;18.430;2023-12-28T10:09:11;10.40;99.90
63771;DHT22;60282;43.862;18.430;2023-12-28T10:11:40;9.10;99.90
63771;DHT22;60282;43.862;18.430;2023-12-28T10:14:07;9.30;99.90
63771;DHT22;60282;43.862;18.430;2023-12-28T10:16:34;9.50;99.90
63771;DHT22;60282;43.862;18.430;2023-12-28T10:19:00;9.70;99.90
63771;DHT22;60282;43.862;18.430;2023-12-28T10:21:25;9.70;99.90
63771;DHT22;60282;43.862;18.430;2023-12-28T10:23:52;9.80;99.90
63771;DHT22;60282;43.862;18.430;2023-12-28T10:26:18;10.00;99.90
63771;DHT22;60282;43.862;18.430;2023-12-28T10:28:45;10.20;99.90
63771;DHT22;60282;43.862;18.430;2023-12-28T10:31:14;10.20;99.90
63771;DHT22;60282;43.862;18.430;2023-12-28T10:33:41;10.40;99.90
63771;DHT22;60282;43.862;18.430;2023-12-28T10:36:10;10.60;99.90
63771;DHT22;60282;43.862;18.430;2023-12-28T10:38:40;10.80;99.90
63771;DHT22;60282;43.862;18.430;2023-12-28T10:41:10;10.90;99.90
63771;DHT22;60282;43.862;18.430;2023-12-28T10:43:59;11.10;99.90
63771;DHT22;60282;43.862;18.430;2023-12-28T10:46:32;11.30;99.90
63771;DHT22;60282;43.862;18.430;2023-12-28T10:49:05;11.20;99.90
63771;DHT22;60282;43.862;18.430;2023-12-28T10:51:35;11.40;99.90
63771;DHT22;60282;43.862;18.430;2023-12-28T10:57:27;11.80;99.90
63771;DHT22;60282;43.862;18.430;2023-12-28T11:02:28;12.20;99.90
63771;DHT22;60282;43.862;18.430;2023-12-28T11:04:56;12.30;99.90
63771;DHT22;60282;43.862;18.430;2023-12-28T11:07:25;12.40;99.90
63771;DHT22;60282;43.862;18.430;2023-12-28T11:10:00;12.50;99.90
63771;DHT22;60282;43.862;18.430;2023-12-28T11:12:27;12.70;99.90
63771;DHT22;60282;43.862;18.430;2023-12-28T11:14:54;12.70;99.90
63771;DHT22;60282;43.862;18.430;2023-12-28T11:17:22;12.80;99.90
63771;DHT22;60282;43.862;18.430;2023-12-28T11:19:53;13.00;99.90
63771;DHT22;60282;43.862;18.430;2023-12-28T11:22:21;13.10;99.90
63771;DHT22;60282;43.862;18.430;2023-12-28T11:24:48;13.20;99.90
63771;DHT22;60282;43.862;18.430;2023-12-28T11:27:13;13.30;99.90
63771;DHT22;60282;43.862;18.430;2023-12-28T11:29:41;13.30;99.90
63771;DHT22;60282;43.862;18.430;2023-12-28T11:32:11;13.50;99.90
63771;DHT22;60282;43.862;18.430;2023-12-28T11:34:37;13.50;99.90
63771;DHT22;60282;43.862;18.430;2023-12-28T11:37:07;13.70;99.90
63771;DHT22;60282;43.862;18.430;2023-12-28T11:39:35;13.40;99.90
63771;DHT22;60282;43.862;18.430;2023-12-28T11:42:05;13.60;99.90
63771;DHT22;60282;43.862;18.430;2023-12-28T11:44:38;13.70;99.90
63771;DHT22;60282;43.862;18.430;2023-12-28T11:47:14;13.90;99.90
63771;DHT22;60282;43.862;18.430;2023-12-28T11:49:40;14.10;99.90
63771;DHT22;60282;43.862;18.430;2023-12-28T11:52:07;14.20;99.80
63771;DHT22;60282;43.862;18.430;2023-12-28T11:54:33;14.30;99.90
63771;DHT22;60282;43.862;18.430;2023-12-28T11:56:59;14.40;99.60
63771;DHT22;60282;43.862;18.430;2023-12-28T11:59:34;14.60;99.10
63771;DHT22;60282;43.862;18.430;2023-12-28T12:02:01;14.70;98.90
63771;DHT22;60282;43.862;18.430;2023-12-28T12:04:37;14.80;98.30
63771;DHT22;60282;43.862;18.430;2023-12-28T12:07:04;15.00;97.40
63771;DHT22;60282;43.862;18.430;2023-12-28T12:12:06;14.90;97.40
63771;DHT22;60282;43.862;18.430;2023-12-28T12:14:32;13.80;97.40
63771;DHT22;60282;43.862;18.430;2023-12-28T12:17:11;15.20;97.20
63771;DHT22;60282;43.862;18.430;2023-12-28T12:19:37;15.40;97.30
63771;DHT22;60282;43.862;18.430;2023-12-28T12:22:03;15.40;96.80
63771;DHT22;60282;43.862;18.430;2023-12-28T12:24:47;15.40;97.00
63771;DHT22;60282;43.862;18.430;2023-12-28T12:27:15;15.50;96.70
63771;DHT22;60282;43.862;18.430;2023-12-28T12:29:40;15.50;96.80
63771;DHT22;60282;43.862;18.430;2023-12-28T12:32:07;15.60;96.50
63771;DHT22;60282;43.862;18.430;2023-12-28T12:34:33;15.70;96.90
63771;DHT22;60282;43.862;18.430;2023-12-28T12:36:59;15.50;96.80
63771;DHT22;60282;43.862;18.430;2023-12-28T12:39:26;15.50;97.00
63771;DHT22;60282;43.862;18.430;2023-12-28T12:41:52;15.50;96.00
63771;DHT22;60282;43.862;18.430;2023-12-28T12:44:23;15.50;96.00
63771;DHT22;60282;43.862;18.430;2023-12-28T12:46:55;15.60;95.50
63771;DHT22;60282;43.862;18.430;2023-12-28T12:49:21;15.50;95.40
63771;DHT22;60282;43.862;18.430;2023-12-28T12:51:48;15.60;95.60
63771;DHT22;60282;43.862;18.430;2023-12-28T12:54:17;15.60;95.60
63771;DHT22;60282;43.862;18.430;2023-12-28T12:56:49;15.50;94.90
63771;DHT22;60282;43.862;18.430;2023-12-28T12:59:15;15.50;95.10
63771;DHT22;60282;43.862;18.430;2023-12-28T13:01:46;15.50;95.10
63771;DHT22;60282;43.862;18.430;2023-12-28T13:04:16;15.60;95.00
63771;DHT22;60282;43.862;18.430;2023-12-28T13:06:42;15.40;95.20
63771;DHT22;60282;43.862;18.430;2023-12-28T13:09:08;15.40;95.30
63771;DHT22;60282;43.862;18.430;2023-12-28T13:11:36;15.30;95.50
63771;DHT22;60282;43.862;18.430;2023-12-28T13:14:03;15.30;95.60
63771;DHT22;60282;43.862;18.430;2023-12-28T13:19:10;15.10;95.90
63771;DHT22;60282;43.862;18.430;2023-12-28T13:21:36;15.10;96.40
63771;DHT22;60282;43.862;18.430;2023-12-28T13:24:03;15.00;96.20
63771;DHT22;60282;43.862;18.430;2023-12-28T13:26:31;14.90;96.50
63771;DHT22;60282;43.862;18.430;2023-12-28T13:28:58;15.50;97.10
63771;DHT22;60282;43.862;18.430;2023-12-28T13:31:24;14.80;96.60
63771;DHT22;60282;43.862;18.430;2023-12-28T13:33:51;14.70;97.00
63771;DHT22;60282;43.862;18.430;2023-12-28T13:36:17;14.80;97.10
63771;DHT22;60282;43.862;18.430;2023-12-28T13:38:44;14.80;96.40
63771;DHT22;60282;43.862;18.430;2023-12-28T13:41:10;14.80;96.30
63771;DHT22;60282;43.862;18.430;2023-12-28T13:43:37;14.90;96.30
63771;DHT22;60282;43.862;18.430;2023-12-28T13:46:03;14.90;96.50
63771;DHT22;60282;43.862;18.430;2023-12-28T13:48:30;14.90;96.50
63771;DHT22;60282;43.862;18.430;2023-12-28T13:50:56;14.90;96.40
63771;DHT22;60282;43.862;18.430;2023-12-28T13:53:28;14.90;96.70
63771;DHT22;60282;43.862;18.430;2023-12-28T13:55:54;14.80;96.80
63771;DHT22;60282;43.862;18.430;2023-12-28T13:58:19;14.80;96.80
63771;DHT22;60282;43.862;18.430;2023-12-28T14:00:49;14.80;96.80
63771;DHT22;60282;43.862;18.430;2023-12-28T14:03:15;14.70;97.30
63771;DHT22;60282;43.862;18.430;2023-12-28T14:08:08;14.70;96.60
63771;DHT22;60282;43.862;18.430;2023-12-28T14:10:34;14.70;97.00
63771;DHT22;60282;43.862;18.430;2023-12-28T14:13:07;14.70;97.20
63771;DHT22;60282;43.862;18.430;2023-12-28T14:15:32;14.90;97.30
63771;DHT22;60282;43.862;18.430;2023-12-28T14:17:58;14.80;96.80
63771;DHT22;60282;43.862;18.430;2023-12-28T14:22:53;14.80;96.20
63771;DHT22;60282;43.862;18.430;2023-12-28T14:25:19;15.20;96.60
63771;DHT22;60282;43.862;18.430;2023-12-28T14:27:45;14.80;96.60
63771;DHT22;60282;43.862;18.430;2023-12-28T14:30:18;14.50;96.40
63771;DHT22;60282;43.862;18.430;2023-12-28T14:32:44;14.50;96.40
63771;DHT22;60282;43.862;18.430;2023-12-28T14:35:10;14.30;96.90
63771;DHT22;60282;43.862;18.430;2023-12-28T14:37:46;14.10;96.90
63771;DHT22;60282;43.862;18.430;2023-12-28T14:40:30;13.70;97.50
63771;DHT22;60282;43.862;18.430;2023-12-28T14:43:04;14.00;97.90
63771;DHT22;60282;43.862;18.430;2023-12-28T14:45:30;13.20;99.20
63771;DHT22;60282;43.862;18.430;2023-12-28T14:47:56;13.00;99.10
63771;DHT22;60282;43.862;18.430;2023-12-28T14:50:21;12.70;99.60
63771;DHT22;60282;43.862;18.430;2023-12-28T14:52:50;12.40;99.90
63771;DHT22;60282;43.862;18.430;2023-12-28T14:55:24;12.00;99.90
63771;DHT22;60282;43.862;18.430;2023-12-28T14:57:51;11.40;99.90
63771;DHT22;60282;43.862;18.430;2023-12-28T15:00:18;11.50;99.90
63771;DHT22;60282;43.862;18.430;2023-12-28T15:02:45;11.20;99.90
63771;DHT22;60282;43.862;18.430;2023-12-28T15:05:11;11.20;99.90
63771;DHT22;60282;43.862;18.430;2023-12-28T15:07:41;10.90;99.90
63771;DHT22;60282;43.862;18.430;2023-12-28T15:10:07;10.80;99.90
63771;DHT22;60282;43.862;18.430;2023-12-28T15:12:34;10.20;99.90
63771;DHT22;60282;43.862;18.430;2023-12-28T15:15:00;10.10;99.90
63771;DHT22;60282;43.862;18.430;2023-12-28T15:17:27;9.80;99.90
63771;DHT22;60282;43.862;18.430;2023-12-28T15:20:12;9.60;99.90
63771;DHT22;60282;43.862;18.430;2023-12-28T15:22:41;9.50;99.90
63771;DHT22;60282;43.862;18.430;2023-12-28T15:25:07;9.30;99.90
63771;DHT22;60282;43.862;18.430;2023-12-28T15:27:42;9.20;99.90
63771;DHT22;60282;43.862;18.430;2023-12-28T15:30:12;8.90;99.90
63771;DHT22;60282;43.862;18.430;2023-12-28T15:35:22;8.80;99.90
63771;DHT22;60282;43.862;18.430;2023-12-28T15:38:20;8.70;99.90
63771;DHT22;60282;43.862;18.430;2023-12-28T15:40:52;8.60;99.90
63771;DHT22;60282;43.862;18.430;2023-12-28T15:43:25;8.60;99.90
63771;DHT22;60282;43.862;18.430;2023-12-28T15:45:53;8.50;99.90
63771;DHT22;60282;43.862;18.430;2023-12-28T15:50:55;8.40;99.90
63771;DHT22;60282;43.862;18.430;2023-12-28T15:53:30;8.30;99.90
63771;DHT22;60282;43.862;18.430;2023-12-28T15:56:13;8.20;99.90
63771;DHT22;60282;43.862;18.430;2023-12-28T15:58:39;8.00;99.90
63771;DHT22;60282;43.862;18.430;2023-12-28T16:01:06;8.00;99.90
63771;DHT22;60282;43.862;18.430;2023-12-28T16:03:52;7.90;99.90
63771;DHT22;60282;43.862;18.430;2023-12-28T16:06:28;7.90;99.90
63771;DHT22;60282;43.862;18.430;2023-12-28T16:08:57;7.80;99.90
63771;DHT22;60282;43.862;18.430;2023-12-28T16:11:24;7.70;99.90
63771;DHT22;60282;43.862;18.430;2023-12-28T16:14:10;7.70;99.90
63771;DHT22;60282;43.862;18.430;2023-12-28T16:16:36;7.60;99.90
63771;DHT22;60282;43.862;18.430;2023-12-28T16:19:05;7.60;99.90